Аэропорт
Якутск (UEEE)

 UEEE / YKS
ЗЦ Хабаровск
Якутск (UEEE)
Якутск (UEEE)
 62.09330, 129.77100  / 325 ft

 UEEE 161630Z 30002MPS 5000 FU NSC 16/12 Q0999 R23L/09//60 NOSIG RMK QFE740
 TAF UEEE 161400Z 1615/1721 30003MPS 2100 FU NSC TEMPO 1615/1624 1000 HZ
AIP 1605
показать схемы
Название сценария Тип сценария Flight Simulator 9 Flight Simulator X Prepar3D v2 Prepar3D v3 Prepar3D v4 Prepar3D v5 xPlane
UEEE P3D_v.4.4 бесплатный
ueee-scenery-fs9-1404 бесплатный
ueee-scenery-fsx-1405 бесплатный
ueee-scenery-p3d-1405 бесплатный
ueee-scenery-xpl-1210 бесплатный
ueee-scenery-xpl-1407 бесплатный

 

Международный аэропорт «Якутск» имени Платона Ойунского (ИАТА: YKS, ИКАО: UEEE) — международный аэропорт федерального значения в одноимённом городе, столице Республики Саха (Якутия). В аэропорту базируются авиакомпании «Якутия» и «Полярные авиалинии». Аэропорт «Якутск» является единственным в мире аэропортом-полигоном для испытаний новой авиационной техники в условиях низких температур.

05П/23Л.  Размеры: 3400/60 м. Покрытие: цементобетон

 



2020 © VATRUS division (Privacy Policy)